Time;durP1;ratioP1;P1;durP2;ratioP2;P2;SDS_P1;SDS_P2;PMS_P1;PMS_P2;Temp;Humidity;BMP_temperature;BMP_pressure;BME280_temperature;BME280_humidity;BME280_pressure;Samples;Min_cycle;Max_cycle;Signal;HPM_P1;HPM_P2
2021/08/14 00:00:46;;;;;;;7.50;6.80;;;;;;;22.58;68.79;157171.81;4994638;28;20426;-84
2021/08/14 00:03:23;;;;;;;8.90;6.77;;;;;;;22.54;68.96;157162.66;4992581;28;20469;-84
2021/08/14 00:06:01;;;;;;;8.00;6.80;;;;;;;22.53;68.64;157160.03;4992630;28;20581;-84
2021/08/14 00:08:37;;;;;;;7.83;6.97;;;;;;;22.52;69.05;157156.13;4992609;28;20935;-84
2021/08/14 00:11:12;;;;;;;8.20;7.03;;;;;;;22.52;68.86;157156.13;4993117;28;20484;-84
2021/08/14 00:13:48;;;;;;;8.17;6.57;;;;;;;22.50;68.98;157152.22;4993403;28;20912;-84
2021/08/14 00:16:23;;;;;;;7.70;7.00;;;;;;;22.50;68.64;157150.91;4993951;28;20501;-84
2021/08/14 00:19:00;;;;;;;7.50;6.70;;;;;;;22.50;69.45;157150.91;4994542;28;20426;-84
2021/08/14 00:21:35;;;;;;;7.67;6.97;;;;;;;22.45;69.72;157139.16;4994062;28;20450;-84
2021/08/14 00:24:11;;;;;;;7.93;7.23;;;;;;;22.44;69.66;157136.53;4975130;28;20936;-84
2021/08/14 00:26:46;;;;;;;9.10;7.17;;;;;;;22.42;69.21;157131.31;4992741;28;20457;-84
2021/08/14 00:29:22;;;;;;;7.53;6.90;;;;;;;22.41;69.64;157128.69;4978006;28;20785;-84
2021/08/14 00:31:58;;;;;;;7.20;6.50;;;;;;;22.37;69.40;157119.53;4993999;28;20469;-84
2021/08/14 00:34:34;;;;;;;7.63;6.93;;;;;;;22.33;70.09;157107.78;4975972;28;20441;-84
2021/08/14 00:37:10;;;;;;;9.20;6.87;;;;;;;22.27;70.08;157092.13;4994025;28;20470;-84
2021/08/14 00:39:45;;;;;;;8.10;7.40;;;;;;;22.23;70.24;157083.00;4992713;28;20485;-84
2021/08/14 00:42:21;;;;;;;7.63;6.80;;;;;;;22.19;70.33;157071.22;4991509;28;20453;-84
2021/08/14 00:44:57;;;;;;;8.50;7.57;;;;;;;22.15;70.81;157060.78;4995986;28;20445;-84
2021/08/14 00:47:33;;;;;;;10.30;7.00;;;;;;;22.11;70.79;157050.31;4992426;28;20446;-84
2021/08/14 00:50:12;;;;;;;7.60;6.90;;;;;;;22.11;70.67;157050.31;4992624;28;20437;-84
2021/08/14 00:52:47;;;;;;;9.00;8.10;;;;;;;22.07;70.89;157039.88;4991733;28;20572;-84
2021/08/14 00:55:23;;;;;;;8.40;7.60;;;;;;;22.01;71.44;157024.22;4990560;28;20487;-84
2021/08/14 00:57:58;;;;;;;8.83;7.77;;;;;;;21.99;71.25;157019.00;4991815;28;20786;-84
2021/08/14 01:00:34;;;;;;;9.63;7.90;;;;;;;21.94;71.92;157007.25;4993213;28;20464;-84
2021/08/14 01:03:10;;;;;;;8.20;7.50;;;;;;;21.92;71.56;157000.72;4991767;28;20441;-84
2021/08/14 01:05:47;;;;;;;9.00;8.10;;;;;;;21.91;71.72;156999.41;4972570;28;20442;-84
2021/08/14 01:08:23;;;;;;;9.00;8.20;;;;;;;21.89;72.11;156992.88;4973968;28;20807;-84
2021/08/14 01:10:58;;;;;;;8.70;7.80;;;;;;;21.85;72.17;156985.00;4978166;28;20480;-84
2021/08/14 01:13:34;;;;;;;8.40;7.60;;;;;;;21.85;72.13;156985.00;4991287;28;20449;-84
2021/08/14 01:16:11;;;;;;;8.87;7.87;;;;;;;21.82;71.92;156975.84;4991545;28;20473;-83
2021/08/14 01:18:47;;;;;;;8.57;7.77;;;;;;;21.78;72.09;156966.75;4993322;28;20514;-84
2021/08/14 01:21:25;;;;;;;8.70;7.90;;;;;;;21.77;71.99;156964.09;4975817;28;21187;-84
2021/08/14 01:24:03;;;;;;;9.13;7.30;;;;;;;21.73;71.94;156953.69;4990830;28;20801;-84
2021/08/14 01:26:41;;;;;;;7.30;6.60;;;;;;;21.69;71.99;156941.91;4991989;28;20457;-84
2021/08/14 01:29:17;;;;;;;8.43;7.53;;;;;;;21.65;72.63;156931.47;4991530;28;20484;-84
2021/08/14 01:31:52;;;;;;;8.03;7.30;;;;;;;21.63;72.46;156926.28;4992475;28;20477;-84
2021/08/14 01:34:28;;;;;;;8.10;7.40;;;;;;;21.58;72.73;156913.16;4991118;28;20477;-83
2021/08/14 01:37:04;;;;;;;8.13;7.00;;;;;;;21.54;72.92;156902.75;4992866;28;20820;-84
2021/08/14 01:39:40;;;;;;;8.40;7.60;;;;;;;21.45;72.71;156880.53;4976708;28;20445;-84
2021/08/14 01:42:17;;;;;;;8.17;7.30;;;;;;;21.40;73.07;156866.19;4991636;28;20542;-82
2021/08/14 01:44:53;;;;;;;8.40;7.50;;;;;;;21.31;73.96;156842.72;4993325;28;20670;-84
2021/08/14 01:47:28;;;;;;;8.23;7.47;;;;;;;21.34;73.57;156850.56;4991404;28;20445;-83
2021/08/14 01:50:05;;;;;;;8.27;7.47;;;;;;;21.31;73.70;156844.03;4991800;28;20441;-82
2021/08/14 01:52:40;;;;;;;7.90;7.13;;;;;;;21.27;73.89;156833.56;4992583;28;20878;-83
2021/08/14 01:55:16;;;;;;;8.10;7.30;;;;;;;21.24;73.93;156825.72;4997009;28;20418;-84
2021/08/14 01:57:53;;;;;;;7.67;6.97;;;;;;;21.18;74.00;156810.09;4995794;28;20485;-82
2021/08/14 02:00:28;;;;;;;6.97;6.37;;;;;;;21.17;74.15;156808.78;4997159;28;20434;-82
2021/08/14 02:03:04;;;;;;;9.90;7.53;;;;;;;21.17;74.12;156807.47;4990074;28;20419;-82
2021/08/14 02:05:39;;;;;;;7.87;6.93;;;;;;;21.15;74.62;156803.53;4989187;28;20453;-82
2021/08/14 02:08:15;;;;;;;7.63;6.90;;;;;;;21.12;74.89;156795.75;4995576;28;20441;-82
2021/08/14 02:10:50;;;;;;;7.53;6.93;;;;;;;21.11;74.68;156791.81;4995411;28;20437;-82
2021/08/14 02:13:28;;;;;;;9.17;7.37;;;;;;;21.10;74.70;156789.22;4995279;28;20472;-81
2021/08/14 02:16:05;;;;;;;8.93;7.00;;;;;;;21.08;75.16;156783.97;4994851;28;20806;-81
2021/08/14 02:18:40;;;;;;;7.77;7.07;;;;;;;21.06;74.99;156780.06;4995257;28;20453;-82
2021/08/14 02:21:16;;;;;;;8.57;7.77;;;;;;;21.00;75.29;156763.03;4994929;28;20485;-81
2021/08/14 02:23:51;;;;;;;7.53;6.70;;;;;;;20.95;75.90;156750.00;4993896;28;20453;-81
2021/08/14 02:26:27;;;;;;;8.57;7.73;;;;;;;20.93;76.14;156744.78;4995067;28;20464;-81
2021/08/14 02:29:04;;;;;;;7.83;7.03;;;;;;;20.88;76.10;156731.75;4994569;28;20778;-81
2021/08/14 02:31:39;;;;;;;8.63;7.03;;;;;;;20.84;76.48;156722.59;4996403;28;20457;-81
2021/08/14 02:34:15;;;;;;;7.50;6.80;;;;;;;20.82;76.47;156717.38;4994460;28;20441;-81
2021/08/14 02:36:50;;;;;;;8.03;7.23;;;;;;;20.80;76.80;156710.84;4995594;28;20445;-82
2021/08/14 02:39:26;;;;;;;8.23;7.40;;;;;;;20.77;76.41;156704.34;4994490;28;20449;-81
2021/08/14 02:42:01;;;;;;;7.90;7.20;;;;;;;20.75;76.58;156697.81;4995387;28;20444;-81
2021/08/14 02:44:38;;;;;;;10.07;7.90;;;;;;;20.74;76.67;156695.19;4986783;28;20434;-83
2021/08/14 02:47:13;;;;;;;8.10;7.30;;;;;;;20.75;76.73;156697.81;4991557;28;20446;-82
2021/08/14 02:49:49;;;;;;;8.07;7.27;;;;;;;20.70;77.01;156686.09;4978463;28;20461;-82
2021/08/14 02:52:24;;;;;;;8.83;7.93;;;;;;;20.68;77.21;156680.84;4989985;28;20474;-82
2021/08/14 02:55:00;;;;;;;8.93;7.40;;;;;;;20.65;77.45;156674.31;4989777;28;20454;-82
2021/08/14 02:57:36;;;;;;;8.23;7.43;;;;;;;20.64;77.14;156671.72;4996017;28;20920;-82
2021/08/14 03:00:14;;;;;;;8.40;7.70;;;;;;;20.61;77.36;156663.91;4993456;28;20441;-82
2021/08/14 03:02:49;;;;;;;8.97;8.17;;;;;;;20.58;77.64;156654.75;4993893;28;20450;-82
2021/08/14 03:05:25;;;;;;;9.00;7.67;;;;;;;20.55;77.67;156646.91;4994213;28;20445;-83
2021/08/14 03:08:01;;;;;;;7.77;7.07;;;;;;;20.50;77.89;156635.19;4996265;28;20437;-82
2021/08/14 03:10:37;;;;;;;8.70;7.90;;;;;;;20.48;78.09;156629.97;4994892;28;20437;-82
2021/08/14 03:13:14;;;;;;;8.37;7.57;;;;;;;20.45;78.31;156620.84;4995392;28;20497;-82
2021/08/14 03:15:51;;;;;;;10.47;8.70;;;;;;;20.42;78.30;156613.00;4993110;28;20453;-82
2021/08/14 03:18:26;;;;;;;10.30;8.57;;;;;;;20.39;78.89;156606.47;4994275;28;20875;-82
2021/08/14 03:21:02;;;;;;;9.40;8.37;;;;;;;20.38;78.79;156603.91;4993825;28;20457;-82
2021/08/14 03:23:38;;;;;;;8.50;7.47;;;;;;;20.38;78.95;156603.91;4988959;28;21020;-82
2021/08/14 03:26:13;;;;;;;10.00;8.90;;;;;;;20.39;78.47;156606.47;4986200;28;20816;-82
2021/08/14 03:28:49;;;;;;;10.20;8.30;;;;;;;20.41;78.56;156611.69;4993757;28;20449;-83
2021/08/14 03:31:26;;;;;;;9.30;8.50;;;;;;;20.42;78.37;156614.31;4995154;28;20544;-82
2021/08/14 03:34:01;;;;;;;9.40;8.37;;;;;;;20.41;78.53;156611.69;4983852;28;20481;-82
2021/08/14 03:36:37;;;;;;;8.20;7.40;;;;;;;20.37;78.77;156601.28;4993476;28;20484;-82
2021/08/14 03:39:12;;;;;;;8.83;7.93;;;;;;;20.32;78.62;156588.25;4993302;28;20450;-82
2021/08/14 03:41:48;;;;;;;8.90;8.10;;;;;;;20.31;78.77;156585.63;4993102;28;20441;-82
2021/08/14 03:44:24;;;;;;;9.07;7.90;;;;;;;20.29;78.93;156580.41;4994640;28;20477;-82
2021/08/14 03:47:00;;;;;;;9.00;8.20;;;;;;;20.26;79.11;156572.56;4994781;28;20433;-82
2021/08/14 03:49:36;;;;;;;9.13;8.23;;;;;;;20.24;79.51;156567.38;4993545;28;20453;-82
2021/08/14 03:52:11;;;;;;;9.73;8.73;;;;;;;20.21;79.44;156558.19;4994980;28;20476;-82
2021/08/14 03:54:47;;;;;;;9.20;8.30;;;;;;;20.22;79.72;156562.13;4994044;28;20485;-82
2021/08/14 03:57:22;;;;;;;8.87;7.97;;;;;;;20.18;79.74;156550.34;4994102;28;20904;-82
2021/08/14 03:59:58;;;;;;;9.73;8.03;;;;;;;20.18;79.67;156551.66;4981740;28;20933;-82
2021/08/14 04:02:35;;;;;;;9.00;8.00;;;;;;;20.17;79.71;156547.75;4992069;28;20536;-81
2021/08/14 04:05:11;;;;;;;8.97;8.07;;;;;;;20.11;80.13;156532.09;4992077;28;20796;-81
2021/08/14 04:07:46;;;;;;;9.77;8.70;;;;;;;20.01;80.96;156507.34;4993261;28;20545;-81
2021/08/14 04:10:21;;;;;;;9.27;8.40;;;;;;;20.00;81.00;156504.72;4993363;28;20442;-81
2021/08/14 04:12:57;;;;;;;9.97;9.00;;;;;;;19.95;81.47;156491.69;4993158;28;20505;-81
2021/08/14 04:15:32;;;;;;;9.90;8.80;;;;;;;19.93;81.42;156486.47;4990800;28;20959;-81
2021/08/14 04:18:09;;;;;;;10.00;9.00;;;;;;;19.93;81.71;156487.78;4993761;28;20477;-81
2021/08/14 04:20:45;;;;;;;9.07;8.17;;;;;;;19.94;81.68;156489.06;4992977;28;20944;-81
2021/08/14 04:23:20;;;;;;;10.10;8.90;;;;;;;19.94;81.65;156490.38;4992480;28;20449;-81
2021/08/14 04:25:56;;;;;;;9.20;8.30;;;;;;;19.97;81.82;156496.88;4992002;28;20457;-81
2021/08/14 04:28:31;;;;;;;9.90;8.60;;;;;;;19.97;81.56;156496.88;4993263;28;20422;-81
2021/08/14 04:31:07;;;;;;;10.17;8.60;;;;;;;19.96;81.64;156494.31;4992577;28;20536;-81
2021/08/14 04:33:44;;;;;;;10.23;9.17;;;;;;;19.97;81.84;156498.19;4993122;28;20552;-81
2021/08/14 04:36:19;;;;;;;9.43;8.63;;;;;;;19.97;81.65;156496.88;4991497;28;20527;-81
2021/08/14 04:38:54;;;;;;;9.90;8.40;;;;;;;19.98;81.87;156499.50;4992608;28;20461;-81
2021/08/14 04:41:30;;;;;;;8.93;8.10;;;;;;;20.03;81.50;156512.53;4977860;28;20453;-81
2021/08/14 04:44:06;;;;;;;9.70;8.57;;;;;;;20.05;81.55;156517.75;4991977;28;20814;-81
2021/08/14 04:46:41;;;;;;;9.67;8.10;;;;;;;20.07;81.34;156522.94;4989839;28;20442;-81
2021/08/14 04:49:18;;;;;;;11.93;8.83;;;;;;;20.12;81.56;156536.00;4991929;28;20453;-81
2021/08/14 04:51:54;;;;;;;9.07;8.13;;;;;;;20.16;81.51;156546.44;4992291;28;20466;-81
2021/08/14 04:54:30;;;;;;;9.40;8.40;;;;;;;20.18;81.62;156551.66;4992155;28;20959;-81
2021/08/14 04:57:06;;;;;;;9.17;8.27;;;;;;;20.18;81.34;156551.66;4991152;28;20449;-81
2021/08/14 04:59:41;;;;;;;10.67;8.90;;;;;;;20.19;81.73;156554.28;4993269;28;20540;-82
2021/08/14 05:02:16;;;;;;;9.37;8.47;;;;;;;20.22;81.52;156560.81;4994006;28;20445;-82
2021/08/14 05:04:53;;;;;;;10.00;9.10;;;;;;;20.26;81.60;156572.56;4992726;28;20449;-81
2021/08/14 05:07:28;;;;;;;8.90;8.00;;;;;;;20.31;81.58;156584.31;4992199;28;20548;-82
2021/08/14 05:10:05;;;;;;;9.20;8.30;;;;;;;20.34;81.37;156593.44;4992097;28;20449;-82
2021/08/14 05:12:41;;;;;;;9.90;9.00;;;;;;;20.39;81.31;156606.47;4992954;28;20477;-82
2021/08/14 05:15:16;;;;;;;9.87;8.87;;;;;;;20.46;81.06;156624.78;4990692;28;20449;-81
2021/08/14 05:17:52;;;;;;;13.63;9.60;;;;;;;20.57;81.15;156653.44;4990683;28;20481;-81
2021/08/14 05:20:29;;;;;;;9.03;8.13;;;;;;;20.80;81.20;156710.84;4988639;28;20450;-81
2021/08/14 05:23:05;;;;;;;8.63;7.77;;;;;;;21.06;80.57;156780.06;4984443;28;20445;-81
2021/08/14 05:25:40;;;;;;;9.40;8.50;;;;;;;21.37;79.54;156859.66;4991494;28;20449;-81
2021/08/14 05:28:16;;;;;;;9.27;8.27;;;;;;;21.73;78.56;156952.38;4976536;28;20473;-83
2021/08/14 05:30:51;;;;;;;8.93;7.90;;;;;;;22.04;76.98;157032.03;4991480;28;20457;-83
2021/08/14 05:33:27;;;;;;;9.10;8.20;;;;;;;22.28;74.72;157096.06;4989986;28;20465;-84
2021/08/14 05:36:04;;;;;;;9.47;8.20;;;;;;;22.54;74.25;157161.34;4990712;28;20480;-84
2021/08/14 05:38:40;;;;;;;10.27;9.17;;;;;;;22.74;73.65;157214.94;4992058;28;20434;-83
2021/08/14 05:41:15;;;;;;;9.80;8.90;;;;;;;22.85;72.99;157242.38;4991312;28;20437;-84
2021/08/14 05:43:51;;;;;;;10.37;9.30;;;;;;;23.02;72.73;157288.16;4984458;28;20433;-84
2021/08/14 05:46:26;;;;;;;9.73;8.70;;;;;;;23.29;71.65;157356.09;4981954;28;20462;-84
2021/08/14 05:49:02;;;;;;;9.87;9.00;;;;;;;23.48;71.06;157405.81;4973533;28;20446;-85
2021/08/14 05:51:39;;;;;;;11.17;9.47;;;;;;;23.70;70.41;157462.00;4988138;28;20812;-84
2021/08/14 05:54:15;;;;;;;9.80;8.83;;;;;;;23.84;69.84;157498.63;4987259;28;20497;-84
2021/08/14 05:56:50;;;;;;;10.00;9.10;;;;;;;24.03;69.01;157548.31;4967327;28;20445;-84
2021/08/14 05:59:26;;;;;;;10.90;9.73;;;;;;;24.23;67.82;157601.97;4993153;28;20967;-84
2021/08/14 06:02:02;;;;;;;11.90;10.80;;;;;;;24.43;67.40;157651.69;4985421;28;20460;-84
2021/08/14 06:04:37;;;;;;;11.70;10.53;;;;;;;24.54;66.83;157681.72;4982572;28;20466;-82
2021/08/14 06:07:14;;;;;;;10.63;9.53;;;;;;;24.54;66.19;157680.47;4981368;28;20430;-82
2021/08/14 06:09:50;;;;;;;10.70;9.10;;;;;;;24.67;65.61;157715.78;4985102;28;20476;-85
2021/08/14 06:12:25;;;;;;;9.97;8.97;;;;;;;24.69;65.61;157721.00;4982843;28;20949;-82
2021/08/14 06:15:01;;;;;;;11.20;8.30;;;;;;;24.91;65.01;157777.31;4983404;28;20447;-83
2021/08/14 06:17:37;;;;;;;9.93;9.03;;;;;;;25.13;64.60;157834.84;4982301;28;20469;-83
2021/08/14 06:20:13;;;;;;;9.97;9.07;;;;;;;25.14;64.73;157837.50;4985079;28;20443;-83
2021/08/14 06:22:50;;;;;;;10.17;9.03;;;;;;;25.29;64.25;157875.44;4979193;28;20458;-83
2021/08/14 06:25:28;;;;;;;10.00;9.10;;;;;;;25.42;63.70;157910.75;5004780;28;20438;-82
2021/08/14 06:28:04;;;;;;;10.30;9.20;;;;;;;25.60;63.01;157955.34;4977646;28;20446;-83
2021/08/14 06:30:40;;;;;;;9.37;8.57;;;;;;;25.72;62.66;157988.06;4977464;28;20430;-83
2021/08/14 06:33:16;;;;;;;10.80;8.37;;;;;;;25.86;62.33;158023.41;4981441;28;20478;-84
2021/08/14 06:35:52;;;;;;;9.60;8.80;;;;;;;26.03;61.29;158069.22;4990997;28;20462;-83
2021/08/14 06:38:29;;;;;;;9.13;8.33;;;;;;;26.25;61.01;158124.25;4991800;28;20508;-83
2021/08/14 06:41:04;;;;;;;9.53;8.63;;;;;;;26.42;60.41;158170.06;4995247;28;20442;-83
2021/08/14 06:43:39;;;;;;;9.80;8.90;;;;;;;26.76;59.33;158257.88;4977697;28;20449;-84
2021/08/14 06:46:15;;;;;;;8.93;8.13;;;;;;;26.74;59.26;158251.31;4963604;28;20431;-85
2021/08/14 06:48:50;;;;;;;8.93;8.13;;;;;;;26.72;58.99;158247.34;4995082;28;20823;-85
2021/08/14 06:51:38;;;;;;;9.43;8.60;;;;;;;27.08;58.23;158340.44;4993168;28;20451;-85
2021/08/14 06:54:16;;;;;;;9.10;8.20;;;;;;;27.34;57.81;158408.56;4980327;28;20497;-86
2021/08/14 06:56:51;;;;;;;9.50;8.67;;;;;;;27.50;57.39;158450.56;4991605;28;20449;-86
2021/08/14 06:59:27;;;;;;;9.83;8.93;;;;;;;27.58;57.53;158471.53;4980668;28;20454;-86
2021/08/14 07:02:03;;;;;;;11.90;10.73;;;;;;;27.69;56.58;158500.31;4995184;28;20936;-86
2021/08/14 07:04:38;;;;;;;10.80;9.70;;;;;;;27.90;56.52;158552.78;4995535;28;20450;-86
2021/08/14 07:07:17;;;;;;;10.30;9.40;;;;;;;28.12;55.87;158610.50;4976797;28;20466;-86
2021/08/14 07:09:54;;;;;;;9.97;8.90;;;;;;;28.17;55.92;158624.91;4974886;28;20545;-86
2021/08/14 07:12:29;;;;;;;9.27;8.47;;;;;;;28.38;55.63;158679.97;4975244;28;20481;-86
2021/08/14 07:15:06;;;;;;;11.90;9.17;;;;;;;28.33;55.59;158665.56;4975300;28;20883;-86
2021/08/14 07:17:42;;;;;;;10.00;9.00;;;;;;;28.32;55.53;158662.97;4974586;28;20474;-86
2021/08/14 07:20:20;;;;;;;8.50;7.80;;;;;;;28.69;54.46;158760.06;4990068;28;20610;-87
2021/08/14 07:22:56;;;;;;;9.60;8.60;;;;;;;28.85;54.20;158802.03;4991696;28;20501;-87
2021/08/14 07:25:33;;;;;;;9.23;8.43;;;;;;;29.11;54.19;158868.91;4988628;28;20438;-87
2021/08/14 07:28:08;;;;;;;13.00;8.90;;;;;;;29.23;53.68;158899.16;4993227;28;20458;-87
2021/08/14 07:30:44;;;;;;;10.00;9.20;;;;;;;29.48;52.10;158964.72;4984244;28;20832;-86
2021/08/14 07:33:20;;;;;;;10.87;9.77;;;;;;;29.54;52.25;158980.50;4993440;28;20473;-87
2021/08/14 07:35:55;;;;;;;9.30;8.50;;;;;;;29.43;53.09;158951.63;4978238;28;20441;-86
2021/08/14 07:38:31;;;;;;;10.20;9.30;;;;;;;29.62;52.69;159000.16;4975001;28;20454;-86
2021/08/14 07:41:09;;;;;;;10.67;9.70;;;;;;;29.69;52.76;159019.84;4979886;28;20831;-86
2021/08/14 07:43:45;;;;;;;10.37;9.33;;;;;;;29.76;51.90;159038.19;4960243;28;21027;-87
2021/08/14 07:46:21;;;;;;;10.57;9.67;;;;;;;30.16;51.98;159141.94;4993756;28;20850;-87
2021/08/14 07:48:57;;;;;;;10.00;9.20;;;;;;;29.91;51.87;159077.66;4994711;28;20445;-86
2021/08/14 07:51:32;;;;;;;10.20;9.30;;;;;;;30.12;51.94;159131.47;4981864;28;20450;-87
2021/08/14 07:54:08;;;;;;;9.90;9.10;;;;;;;30.52;51.44;159235.22;4975176;28;20482;-87
2021/08/14 07:56:45;;;;;;;10.60;9.67;;;;;;;30.50;50.78;159229.97;4978285;28;20441;-87
2021/08/14 07:59:20;;;;;;;9.03;8.20;;;;;;;30.81;49.29;159311.38;4996077;28;20536;-87
2021/08/14 08:01:56;;;;;;;10.57;9.67;;;;;;;30.76;50.47;159299.53;4994215;28;20478;-87
2021/08/14 08:04:31;;;;;;;9.73;8.93;;;;;;;30.83;47.94;159315.28;4994781;28;20481;-87
2021/08/14 08:07:07;;;;;;;11.47;7.80;;;;;;;31.22;48.83;159417.78;4976195;28;20450;-87
2021/08/14 08:09:42;;;;;;;9.57;8.80;;;;;;;31.16;47.56;159403.31;4979429;28;20941;-86
2021/08/14 08:12:19;;;;;;;8.37;7.57;;;;;;;31.22;47.58;159419.09;4977814;28;20422;-86
2021/08/14 08:14:55;;;;;;;9.17;8.27;;;;;;;31.31;46.18;159441.44;4989803;28;20552;-86
2021/08/14 08:17:31;;;;;;;9.53;8.63;;;;;;;31.23;48.09;159420.41;4995592;28;20472;-86
2021/08/14 08:20:08;;;;;;;9.23;8.50;;;;;;;31.13;47.39;159395.50;4989911;28;20442;-86
2021/08/14 08:22:44;;;;;;;9.13;8.33;;;;;;;31.39;47.35;159462.47;4992729;28;20453;-86
2021/08/14 08:25:20;;;;;;;9.40;8.60;;;;;;;31.50;46.87;159490.09;4993478;28;20445;-86
2021/08/14 08:28:01;;;;;;;10.00;8.87;;;;;;;31.48;47.23;159484.84;4993021;28;20480;-86
2021/08/14 08:30:36;;;;;;;8.93;8.20;;;;;;;31.77;47.58;159561.06;4993590;28;20528;-86
2021/08/14 08:33:12;;;;;;;10.37;9.50;;;;;;;31.98;46.96;159616.25;4995135;28;20533;-86
2021/08/14 08:35:47;;;;;;;10.97;8.40;;;;;;;32.04;44.93;159632.03;4991242;28;20820;-85
2021/08/14 08:38:22;;;;;;;9.60;8.30;;;;;;;31.94;44.13;159607.03;4993534;28;20456;-86
2021/08/14 08:40:58;;;;;;;8.60;7.90;;;;;;;31.86;45.56;159584.69;4990028;28;20480;-87
2021/08/14 08:43:40;;;;;;;9.00;8.10;;;;;;;32.09;45.27;159645.16;4993378;28;20465;-87
2021/08/14 08:46:18;;;;;;;8.30;7.60;;;;;;;32.10;44.56;159647.81;4973171;28;20438;-86
2021/08/14 08:48:53;;;;;;;9.30;8.50;;;;;;;32.14;45.45;159658.34;4985063;28;20456;-86
2021/08/14 08:51:31;;;;;;;9.23;8.40;;;;;;;32.12;44.09;159653.06;4992695;28;20863;-86
2021/08/14 08:54:20;;;;;;;8.83;8.03;;;;;;;32.28;44.69;159695.13;4993075;28;20507;-86
2021/08/14 08:56:55;;;;;;;9.03;8.23;;;;;;;32.20;44.88;159674.09;4979917;28;20469;-86
2021/08/14 08:59:32;;;;;;;8.83;7.93;;;;;;;32.24;44.90;159683.28;4989644;28;20460;-86
2021/08/14 09:02:21;;;;;;;8.90;8.10;;;;;;;32.40;44.21;159726.69;4992880;28;20445;-86
2021/08/14 09:05:10;;;;;;;8.17;7.47;;;;;;;32.47;42.72;159745.06;4985940;28;20441;-86
2021/08/14 09:07:47;;;;;;;8.30;7.60;;;;;;;32.58;41.72;159771.41;4992767;28;20476;-87
2021/08/14 09:10:26;;;;;;;7.70;7.10;;;;;;;32.46;41.96;159742.41;4993912;28;20442;-86
2021/08/14 09:13:13;;;;;;;9.23;8.33;;;;;;;32.57;42.98;159768.81;4990668;28;20927;-86
2021/08/14 09:15:50;;;;;;;9.20;8.50;;;;;;;32.46;42.52;159742.41;4993458;28;20473;-86
2021/08/14 09:18:25;;;;;;;8.30;7.60;;;;;;;32.53;42.83;159758.25;4986175;28;20475;-86
2021/08/14 09:21:00;;;;;;;8.00;7.40;;;;;;;32.39;43.27;159724.03;4991821;28;20441;-86
2021/08/14 09:23:41;;;;;;;8.50;7.80;;;;;;;32.44;42.61;159737.16;4992645;28;20461;-85
2021/08/14 09:26:16;;;;;;;10.67;8.20;;;;;;;32.22;42.85;159678.06;4972667;28;20446;-85
2021/08/14 09:29:03;;;;;;;9.63;7.90;;;;;;;32.31;43.81;159701.69;4981924;28;20472;-85
2021/08/14 09:31:49;;;;;;;9.03;8.13;;;;;;;32.37;43.72;159718.78;4973299;28;20477;-85
2021/08/14 09:34:27;;;;;;;8.80;8.00;;;;;;;32.36;43.43;159716.13;4992104;28;20563;-85
2021/08/14 09:37:04;;;;;;;10.07;9.00;;;;;;;30.93;46.33;159341.59;4978750;28;20462;-85
2021/08/14 09:40:01;;;;;;;9.30;8.40;;;;;;;30.83;46.71;159316.63;4990818;28;20839;-85
2021/08/14 09:42:52;;;;;;;8.77;7.93;;;;;;;31.10;46.95;159387.59;4990162;28;20441;-85
2021/08/14 09:45:29;;;;;;;8.80;8.10;;;;;;;31.39;47.58;159462.47;4983877;28;20463;-85
2021/08/14 09:48:17;;;;;;;8.30;7.53;;;;;;;31.56;46.03;159507.16;4982541;28;20507;-85
2021/08/14 09:50:53;;;;;;;9.03;8.30;;;;;;;31.67;45.31;159534.75;4995565;28;20458;-85
2021/08/14 09:53:30;;;;;;;9.83;8.93;;;;;;;31.54;45.42;159501.91;4982104;28;20445;-86
2021/08/14 09:56:07;;;;;;;8.33;7.53;;;;;;;31.56;44.49;159507.16;4982438;28;20422;-85
2021/08/14 09:58:43;;;;;;;9.03;8.13;;;;;;;31.46;44.69;159479.56;4981683;28;21003;-85
2021/08/14 10:01:19;;;;;;;8.57;7.87;;;;;;;31.63;45.97;159524.25;4985293;28;20848;-85
2021/08/14 10:03:56;;;;;;;9.40;8.60;;;;;;;31.68;45.20;159537.38;4983745;28;20973;-85
2021/08/14 10:06:32;;;;;;;9.80;8.33;;;;;;;31.47;45.73;159482.22;4967065;28;20453;-85
2021/08/14 10:09:08;;;;;;;8.40;7.70;;;;;;;31.54;45.57;159500.59;4991992;28;20462;-85
2021/08/14 10:11:43;;;;;;;9.00;8.20;;;;;;;31.87;44.53;159588.66;4992159;28;20437;-85
2021/08/14 10:14:20;;;;;;;8.87;8.00;;;;;;;31.93;44.91;159603.09;4983659;28;20476;-85
2021/08/14 10:16:56;;;;;;;9.20;8.50;;;;;;;31.62;45.21;159521.59;4991146;28;20482;-85
2021/08/14 10:19:34;;;;;;;8.20;7.40;;;;;;;31.52;45.68;159496.66;4992243;28;20457;-85
2021/08/14 10:22:10;;;;;;;8.90;8.20;;;;;;;31.49;45.84;159487.44;4990447;28;20525;-85
2021/08/14 10:24:46;;;;;;;9.03;8.33;;;;;;;31.60;44.00;159517.69;4991830;28;20457;-75
2021/08/14 10:27:22;;;;;;;9.37;8.57;;;;;;;31.23;45.56;159421.75;4989313;28;20453;-75
2021/08/14 10:29:59;;;;;;;8.93;8.10;;;;;;;31.54;45.12;159500.59;4981932;28;20523;-75
2021/08/14 10:32:49;;;;;;;9.63;8.70;;;;;;;31.28;45.37;159434.88;5007954;28;20433;-75
2021/08/14 10:35:34;;;;;;;10.07;9.17;;;;;;;30.71;47.89;159286.41;4983342;28;20474;-75
2021/08/14 10:38:37;;;;;;;9.90;9.00;;;;;;;30.44;47.77;159215.53;4988282;28;20526;-75
2021/08/14 10:41:13;;;;;;;9.87;9.07;;;;;;;30.45;48.41;159216.81;4959292;28;20876;-75
2021/08/14 10:44:03;;;;;;;11.57;10.53;;;;;;;30.43;48.79;159212.88;4979759;28;20832;-75
2021/08/14 10:46:47;;;;;;;9.80;8.90;;;;;;;30.07;49.26;159119.66;4990800;28;20752;-75
2021/08/14 10:49:39;;;;;;;12.97;9.77;;;;;;;29.68;49.63;159017.19;4982068;28;20462;-75
2021/08/14 10:52:16;;;;;;;10.73;9.73;;;;;;;29.41;50.68;158946.38;4985296;28;20442;-74
2021/08/14 10:55:08;;;;;;;10.63;9.80;;;;;;;29.14;50.88;158875.47;4986879;28;20886;-75
2021/08/14 10:57:51;;;;;;;9.97;9.07;;;;;;;29.06;51.94;158854.47;4987178;28;20454;-75
2021/08/14 11:00:28;;;;;;;10.33;8.93;;;;;;;28.93;51.70;158823.03;4984106;28;20441;-75
2021/08/14 11:03:06;;;;;;;11.37;9.80;;;;;;;28.75;51.65;158775.75;4986514;28;20464;-75
2021/08/14 11:05:45;;;;;;;10.63;9.70;;;;;;;28.67;52.25;158753.50;4982541;28;20445;-75
2021/08/14 11:08:32;;;;;;;11.03;9.93;;;;;;;28.76;51.82;158778.41;4994519;28;20540;-75
2021/08/14 11:11:37;;;;;;;10.20;8.87;;;;;;;28.82;51.91;158792.84;4993186;28;20540;-75
2021/08/14 11:14:13;;;;;;;9.50;8.70;;;;;;;28.64;52.19;158746.94;4994941;28;20457;-75
2021/08/14 11:17:02;;;;;;;12.23;9.87;;;;;;;28.59;51.92;158732.47;4994642;28;20485;-75
2021/08/14 11:19:47;;;;;;;9.53;8.63;;;;;;;28.57;52.78;158728.50;4995122;28;20454;-76
2021/08/14 11:22:42;;;;;;;9.77;8.97;;;;;;;28.80;53.26;158788.91;4997741;28;20464;-75
2021/08/14 11:25:23;;;;;;;10.63;9.63;;;;;;;28.82;52.08;158794.16;4968868;28;20541;-76
2021/08/14 11:28:00;;;;;;;10.47;9.47;;;;;;;28.72;51.90;158767.94;4991987;28;21018;-75
2021/08/14 11:30:39;;;;;;;9.80;9.00;;;;;;;28.92;53.17;158820.38;4993870;28;20442;-75
2021/08/14 11:33:15;;;;;;;9.67;8.67;;;;;;;29.27;51.96;158909.63;4993265;28;20452;-75
2021/08/14 11:36:01;;;;;;;10.03;9.10;;;;;;;29.10;51.75;158866.28;4978569;28;20474;-75
2021/08/14 11:38:38;;;;;;;10.30;9.30;;;;;;;29.06;51.54;158854.47;4983602;28;20553;-75
2021/08/14 11:41:18;;;;;;;10.00;9.20;;;;;;;28.93;51.29;158823.03;5004654;28;20449;-75
2021/08/14 11:43:54;;;;;;;10.37;9.27;;;;;;;29.04;51.57;158850.56;4994912;28;20469;-76
2021/08/14 11:46:30;;;;;;;10.27;9.27;;;;;;;29.27;51.22;158909.63;4996093;28;20489;-76
2021/08/14 11:49:06;;;;;;;13.00;9.20;;;;;;;29.50;50.31;158969.97;4995557;28;20551;-76
2021/08/14 11:51:42;;;;;;;12.27;10.83;;;;;;;29.57;50.67;158988.38;4990887;28;20445;-76
2021/08/14 11:54:17;;;;;;;12.03;9.43;;;;;;;29.41;51.39;158946.38;4989415;28;20827;-75
2021/08/14 11:57:13;;;;;;;10.37;9.37;;;;;;;29.47;50.72;158962.09;4990383;28;20454;-74
2021/08/14 11:59:49;;;;;;;9.90;9.10;;;;;;;29.44;51.27;158954.25;4994415;28;20442;-75
2021/08/14 12:02:25;;;;;;;10.10;9.07;;;;;;;29.63;50.85;159004.09;4994766;28;20441;-75
2021/08/14 12:05:01;;;;;;;9.37;8.47;;;;;;;29.73;50.90;159030.38;4993283;28;20438;-76
2021/08/14 12:07:38;;;;;;;9.97;9.00;;;;;;;29.60;51.12;158996.19;4992346;28;20445;-75